createdAt,value
2022-09-28T00:01:43.269Z,31.8
2022-09-28T00:03:59.481Z,31.7
2022-09-28T00:06:15.671Z,31.8
2022-09-28T00:08:32.036Z,31.9
2022-09-28T00:10:48.378Z,32.1
2022-09-28T00:13:04.391Z,32.1
2022-09-28T00:15:20.688Z,32.1
2022-09-28T00:17:36.949Z,32.2
2022-09-28T00:22:09.069Z,32.2
2022-09-28T00:24:27.627Z,31.7
2022-09-28T00:26:40.393Z,31.8
2022-09-28T00:28:55.713Z,31.8
2022-09-28T00:31:11.710Z,31.8
2022-09-28T00:33:27.060Z,32.1
2022-09-28T00:35:43.485Z,32
2022-09-28T00:37:59.491Z,32.3
2022-09-28T00:40:14.819Z,31.6
2022-09-28T00:42:31.401Z,31.9
2022-09-28T00:44:47.958Z,32.1
2022-09-28T00:47:04.143Z,31.7
2022-09-28T00:49:19.970Z,31.9
2022-09-28T00:51:35.285Z,32.1
2022-09-28T00:53:51.802Z,32.1
2022-09-28T00:56:08.461Z,32.1
2022-09-28T00:58:24.664Z,32.1
2022-09-28T01:00:40.960Z,32.1
2022-09-28T01:02:57.117Z,32.2
2022-09-28T01:05:13.459Z,31.7
2022-09-28T01:07:29.719Z,31.8
2022-09-28T01:09:45.927Z,31.8
2022-09-28T01:12:02.245Z,31.6
2022-09-28T01:14:18.438Z,31.9
2022-09-28T01:16:34.756Z,32
2022-09-28T01:18:51.864Z,32.1
2022-09-28T01:21:07.344Z,32.1
2022-09-28T01:23:23.540Z,31.6
2022-09-28T01:25:39.881Z,32.3
2022-09-28T01:27:56.130Z,32
2022-09-28T01:30:12.427Z,31.9
2022-09-28T01:32:28.664Z,31.9
2022-09-28T01:34:44.526Z,30.9
2022-09-28T01:36:59.399Z,31.3
2022-09-28T01:39:14.443Z,32.3
2022-09-28T01:41:29.561Z,32.9
2022-09-28T01:43:46.288Z,31.4
2022-09-28T01:46:02.254Z,32.3
2022-09-28T01:48:17.557Z,31.9
2022-09-28T01:50:33.360Z,31.5
2022-09-28T01:52:48.704Z,31.9
2022-09-28T01:55:05.263Z,31.3
2022-09-28T01:57:21.826Z,32.1
2022-09-28T01:59:37.692Z,31.8
2022-09-28T02:01:53.241Z,31.6
2022-09-28T02:04:09.544Z,31.4
2022-09-28T02:06:25.439Z,32.1
2022-09-28T02:08:40.803Z,31.4
2022-09-28T02:10:57.324Z,31.3
2022-09-28T02:13:13.745Z,31.8
2022-09-28T02:15:29.627Z,31.7
2022-09-28T02:17:44.424Z,31.4
2022-09-28T02:19:59.777Z,32.3
2022-09-28T02:22:16.248Z,31.3
2022-09-28T02:24:32.762Z,31.9
2022-09-28T02:26:49.160Z,31.9
2022-09-28T02:29:05.578Z,31.5
2022-09-28T02:31:21.944Z,31.8
2022-09-28T02:33:38.164Z,31.5
2022-09-28T02:35:54.475Z,31.6
2022-09-28T02:38:10.768Z,31.8
2022-09-28T02:40:26.699Z,31.7
2022-09-28T02:42:42.041Z,31.7
2022-09-28T02:44:58.001Z,31.6
2022-09-28T02:47:13.572Z,31.9
2022-09-28T02:49:48.161Z,31.3
2022-09-28T02:52:04.576Z,31.9
2022-09-28T02:54:20.940Z,31.8
2022-09-28T02:56:37.323Z,31.8
2022-09-28T02:58:53.615Z,31.6
2022-09-28T03:01:10.045Z,31.4
2022-09-28T03:03:26.216Z,31.7
2022-09-28T03:05:42.503Z,31.9
2022-09-28T03:07:58.303Z,31.7
2022-09-28T03:10:13.185Z,31.5
2022-09-28T03:12:28.777Z,31.4
2022-09-28T03:14:45.070Z,31.3
2022-09-28T03:17:01.582Z,31.5
2022-09-28T03:19:18.108Z,31.8
2022-09-28T03:21:34.383Z,31.7
2022-09-28T03:24:02.519Z,31.6
2022-09-28T03:26:18.842Z,31.5
2022-09-28T03:28:35.160Z,31.6
2022-09-28T03:30:51.517Z,31.8
2022-09-28T03:33:07.889Z,31.7
2022-09-28T03:35:24.177Z,31.4
2022-09-28T03:37:40.459Z,31.7
2022-09-28T03:39:56.721Z,31.8
2022-09-28T03:42:13.000Z,31.3
2022-09-28T03:44:29.369Z,32.1
2022-09-28T03:46:45.633Z,32.2
2022-09-28T03:49:01.468Z,31.8
2022-09-28T03:51:16.747Z,31.6
2022-09-28T03:53:33.341Z,31.6
2022-09-28T03:55:49.739Z,31.9
2022-09-28T03:58:06.339Z,31.5
2022-09-28T04:00:21.973Z,31.9
2022-09-28T04:02:37.378Z,31.4
2022-09-28T04:07:10.326Z,31.9
2022-09-28T04:09:25.579Z,31.9
2022-09-28T04:11:59.637Z,31.4
2022-09-28T04:14:06.653Z,31.4
2022-09-28T04:16:23.252Z,31.3
2022-09-28T04:18:39.439Z,31.7
2022-09-28T04:20:55.771Z,31.5
2022-09-28T04:23:12.158Z,31.9
2022-09-28T04:25:28.444Z,31.6
2022-09-28T04:27:45.215Z,32.3
2022-09-28T04:30:00.653Z,31.8
2022-09-28T04:32:16.083Z,31.4
2022-09-28T04:34:35.864Z,31.8
2022-09-28T04:36:49.019Z,32.1
2022-09-28T04:39:14.372Z,31.9
2022-09-28T04:41:30.684Z,32.1
2022-09-28T04:43:46.821Z,31.8
2022-09-28T04:46:02.027Z,31.7
2022-09-28T04:48:18.460Z,31.8
2022-09-28T04:50:34.325Z,32.1
2022-09-28T04:52:49.700Z,31.6
2022-09-28T04:55:06.323Z,31.3
2022-09-28T04:57:22.688Z,32
2022-09-28T04:59:39.202Z,32.1
2022-09-28T05:01:55.559Z,31.7
2022-09-28T05:04:11.827Z,31.9
2022-09-28T05:06:28.249Z,32
2022-09-28T05:08:44.089Z,31.9
2022-09-28T05:11:00.510Z,32.1
2022-09-28T05:13:15.758Z,31.4
2022-09-28T05:15:32.382Z,31.9
2022-09-28T05:17:48.804Z,32.5
2022-09-28T05:20:05.274Z,31.9
2022-09-28T05:22:21.062Z,32.2
2022-09-28T05:24:36.452Z,31.8
2022-09-28T05:26:53.060Z,31.8
2022-09-28T05:29:09.640Z,32.3
2022-09-28T05:31:25.990Z,32.6
2022-09-28T05:33:42.211Z,32.4
2022-09-28T05:36:01.249Z,32.9
2022-09-28T05:38:14.926Z,33.5
2022-09-28T05:40:31.164Z,33.5
2022-09-28T05:42:47.543Z,33.8
2022-09-28T05:45:03.668Z,33.9
2022-09-28T05:47:19.916Z,34.5
2022-09-28T05:49:36.108Z,34.7
2022-09-28T05:51:52.507Z,34.8
2022-09-28T05:54:08.521Z,35.4
2022-09-28T05:56:43.361Z,35.1
2022-09-28T05:58:59.577Z,35.3
2022-09-28T06:01:15.626Z,35.5
2022-09-28T06:03:31.946Z,35.9
2022-09-28T06:05:48.020Z,35.6
2022-09-28T06:08:04.164Z,35.1
2022-09-28T06:10:20.300Z,34.9
2022-09-28T06:12:36.450Z,35.3
2022-09-28T06:14:52.404Z,36.1
2022-09-28T06:17:08.553Z,35.3
2022-09-28T06:19:24.596Z,35.1
2022-09-28T06:21:40.648Z,35.4
2022-09-28T06:23:56.580Z,35
2022-09-28T06:26:12.697Z,34.7
2022-09-28T06:28:28.673Z,35.1
2022-09-28T06:30:44.721Z,34.9
2022-09-28T06:33:00.743Z,35.4
2022-09-28T06:35:16.767Z,34.9
2022-09-28T06:37:32.765Z,34.8
2022-09-28T06:39:49.155Z,34.4
2022-09-28T06:42:04.510Z,34.9
2022-09-28T06:44:19.849Z,33.5
2022-09-28T06:46:35.973Z,34.8
2022-09-28T06:48:51.918Z,34.1
2022-09-28T06:51:07.909Z,33.7
2022-09-28T06:53:23.720Z,33.5
2022-09-28T06:55:39.647Z,33.6
2022-09-28T06:57:55.554Z,34.6
2022-09-28T07:00:11.405Z,33.9
2022-09-28T07:02:27.372Z,34.5
2022-09-28T07:04:43.162Z,34.1
2022-09-28T07:06:59.081Z,33.5
2022-09-28T07:09:31.122Z,34.1
2022-09-28T07:11:35.369Z,33.6
2022-09-28T07:14:06.247Z,34.3
2022-09-28T07:16:40.994Z,33.7
2022-09-28T07:19:02.182Z,33.4
2022-09-28T07:21:26.993Z,33.4
2022-09-28T07:23:38.995Z,33.6
2022-09-28T07:25:48.870Z,33.3
2022-09-28T07:28:05.235Z,33.6
2022-09-28T07:30:21.394Z,33.8
2022-09-28T07:32:37.104Z,33.9
2022-09-28T07:34:56.642Z,34.6
2022-09-28T07:37:07.559Z,32.9
2022-09-28T07:39:22.375Z,33.7
2022-09-28T07:41:37.675Z,33.3
2022-09-28T07:43:53.685Z,34.1
2022-09-28T07:46:08.464Z,32.9
2022-09-28T07:48:23.260Z,33.2
2022-09-28T07:50:38.982Z,34.4
2022-09-28T07:52:55.059Z,33.8
2022-09-28T07:55:11.122Z,34.1
2022-09-28T07:57:27.116Z,34.2
2022-09-28T07:59:43.004Z,34.3
2022-09-28T08:01:58.593Z,34.2
2022-09-28T08:04:13.383Z,32.6
2022-09-28T08:06:28.778Z,33.4
2022-09-28T08:08:44.916Z,33.9
2022-09-28T08:11:01.081Z,33.7
2022-09-28T08:13:16.924Z,33.9
2022-09-28T08:15:32.772Z,34
2022-09-28T08:17:48.732Z,34.1
2022-09-28T08:20:04.189Z,34.1
2022-09-28T08:22:20.786Z,32.6
2022-09-28T08:24:35.691Z,33.5
2022-09-28T08:26:51.256Z,33.9
2022-09-28T08:29:06.132Z,32.9
2022-09-28T08:31:21.152Z,33.4
2022-09-28T08:33:36.369Z,33.8
2022-09-28T08:35:52.778Z,34
2022-09-28T08:38:09.165Z,33.9
2022-09-28T08:40:25.020Z,33.7
2022-09-28T08:42:40.491Z,33.8
2022-09-28T08:44:55.711Z,32.7
2022-09-28T08:47:11.805Z,33.6
2022-09-28T08:49:43.468Z,33.5
2022-09-28T08:51:58.247Z,32.3
2022-09-28T08:54:13.149Z,33.2
2022-09-28T08:56:28.222Z,33.3
2022-09-28T08:58:42.756Z,33.1
2022-09-28T09:00:58.155Z,33
2022-09-28T09:03:13.921Z,33.6
2022-09-28T09:05:28.780Z,32.6
2022-09-28T09:07:44.064Z,33.4
2022-09-28T09:09:59.867Z,33.8
2022-09-28T09:12:14.655Z,32.8
2022-09-28T09:14:29.940Z,33.6
2022-09-28T09:16:45.342Z,32.4
2022-09-28T09:19:01.557Z,31.6
2022-09-28T09:21:17.327Z,32
2022-09-28T09:23:32.396Z,31.4
2022-09-28T09:25:47.713Z,31.6
2022-09-28T09:28:02.884Z,31.9
2022-09-28T09:30:20.083Z,32.4
2022-09-28T09:32:32.520Z,32.9
2022-09-28T09:34:47.461Z,33.4
2022-09-28T09:37:02.297Z,33.8
2022-09-28T09:39:17.177Z,33.2
2022-09-28T09:41:32.290Z,33.9
2022-09-28T09:43:46.862Z,33.4
2022-09-28T09:46:01.743Z,33.4
2022-09-28T09:48:16.611Z,33.8
2022-09-28T09:50:31.462Z,33.3
2022-09-28T09:52:46.294Z,33.6
2022-09-28T09:55:01.138Z,33.3
2022-09-28T09:57:16.035Z,34
2022-09-28T09:59:30.851Z,33.9
2022-09-28T10:01:45.657Z,33.3
2022-09-28T10:04:00.538Z,33.6
2022-09-28T10:06:15.422Z,33.6
2022-09-28T10:08:30.270Z,33.8
2022-09-28T10:10:45.128Z,33.3
2022-09-28T10:12:59.952Z,33.4
2022-09-28T10:15:14.814Z,33.4
2022-09-28T10:17:29.907Z,32.9
2022-09-28T10:19:44.624Z,33.4
2022-09-28T10:21:59.423Z,33.4
2022-09-28T10:24:14.295Z,33.8
2022-09-28T10:26:29.136Z,33.7
2022-09-28T10:28:44.199Z,33.9
2022-09-28T10:30:59.536Z,33.2
2022-09-28T10:33:15.199Z,32.3
2022-09-28T10:35:29.970Z,33.4
2022-09-28T10:37:44.781Z,32.9
2022-09-28T10:39:59.782Z,33.2
2022-09-28T10:44:29.809Z,33.6
2022-09-28T10:46:44.604Z,34.4
2022-09-28T10:48:59.716Z,33.1
2022-09-28T10:51:14.714Z,33.4
2022-09-28T10:53:30.032Z,33.9
2022-09-28T10:55:44.651Z,33.6
2022-09-28T10:57:59.720Z,33.9
2022-09-28T11:00:14.683Z,33.6
2022-09-28T11:02:32.372Z,33
2022-09-28T11:04:44.539Z,33.2
2022-09-28T11:09:14.411Z,33.8
2022-09-28T11:11:29.300Z,34
2022-09-28T11:13:44.576Z,33.3
2022-09-28T11:15:59.279Z,33.7
2022-09-28T11:18:14.267Z,33.1
2022-09-28T11:20:29.146Z,33.3
2022-09-28T11:22:44.060Z,33.4
2022-09-28T11:24:59.043Z,33.3
2022-09-28T11:27:14.102Z,33.6
2022-09-28T11:29:29.011Z,33.9
2022-09-28T11:31:44.053Z,33.8
2022-09-28T11:33:59.304Z,34
2022-09-28T11:36:20.393Z,33.6
2022-09-28T11:38:35.244Z,33.2
2022-09-28T11:40:50.148Z,33.3
2022-09-28T11:45:19.830Z,33.8
2022-09-28T11:47:34.632Z,33.4
2022-09-28T11:49:49.511Z,33.9
2022-09-28T11:52:04.330Z,33.3
2022-09-28T11:54:19.328Z,33.4
2022-09-28T11:56:34.064Z,33.8
2022-09-28T11:58:49.006Z,33.9
2022-09-28T12:01:03.750Z,33.9
2022-09-28T12:03:18.798Z,33.2
2022-09-28T12:05:33.616Z,33.8
2022-09-28T12:07:48.442Z,33.8
2022-09-28T12:10:03.485Z,33.4
2022-09-28T12:12:18.314Z,34.3
2022-09-28T12:14:33.038Z,33.8
2022-09-28T12:17:38.920Z,33.9
2022-09-28T12:19:53.230Z,33.2
2022-09-28T12:22:08.600Z,34.5
2022-09-28T12:24:23.473Z,33.2
2022-09-28T12:26:38.421Z,33.4
2022-09-28T12:28:53.264Z,34
2022-09-28T12:31:08.221Z,33.2
2022-09-28T12:33:22.900Z,33.4
2022-09-28T12:35:37.698Z,33.3
2022-09-28T12:37:53.973Z,32.7
2022-09-28T12:40:31.613Z,33.5
2022-09-28T12:42:46.453Z,33.5
2022-09-28T12:45:01.230Z,33.4
2022-09-28T12:47:27.584Z,33.4
2022-09-28T12:51:06.065Z,33.9
2022-09-28T12:53:20.900Z,34.1
2022-09-28T12:55:35.810Z,33.9
2022-09-28T12:57:50.628Z,33.4
2022-09-28T13:00:05.528Z,33.6
2022-09-28T13:02:20.370Z,33.4
2022-09-28T13:04:35.208Z,33.3
2022-09-28T13:06:50.356Z,34.1
2022-09-28T13:09:04.895Z,33.1
2022-09-28T13:11:19.822Z,33.6
2022-09-28T13:13:34.549Z,33.6
2022-09-28T13:15:49.039Z,33.6
2022-09-28T13:18:04.328Z,34.1
2022-09-28T13:20:19.135Z,32.9
2022-09-28T13:22:34.096Z,33.1
2022-09-28T13:25:04.201Z,33.4
2022-09-28T13:27:19.301Z,32.8
2022-09-28T13:29:34.075Z,33.9
2022-09-28T13:31:48.810Z,33.9
2022-09-28T13:34:03.709Z,32.8
2022-09-28T13:36:18.542Z,33.4
2022-09-28T13:38:33.424Z,33.4
2022-09-28T13:40:48.332Z,33.4
2022-09-28T13:43:03.638Z,33.6
2022-09-28T13:45:19.740Z,32.5
2022-09-28T13:47:35.396Z,32.1
2022-09-28T13:49:50.962Z,31.8
2022-09-28T13:52:06.084Z,31.4
2022-09-28T13:54:21.281Z,32
2022-09-28T13:56:36.121Z,32.5
2022-09-28T13:58:51.379Z,31.9
2022-09-28T14:01:07.420Z,31.3
2022-09-28T14:03:22.476Z,32.3
2022-09-28T14:05:38.223Z,32.1
2022-09-28T14:07:55.287Z,31.9
2022-09-28T14:10:08.645Z,32.4
2022-09-28T14:12:24.223Z,31.4
2022-09-28T14:14:39.662Z,31.8
2022-09-28T14:16:54.472Z,31.5
2022-09-28T14:19:10.476Z,31.6
2022-09-28T14:21:25.643Z,31.3
2022-09-28T14:23:41.060Z,31.8
2022-09-28T14:25:56.452Z,31.5
2022-09-28T14:28:11.585Z,31.4
2022-09-28T14:30:26.843Z,31.6
2022-09-28T14:32:42.022Z,31.6
2022-09-28T14:37:12.427Z,31.9
2022-09-28T14:39:27.240Z,32.3
2022-09-28T14:41:42.108Z,32.6
2022-09-28T14:43:57.459Z,33
2022-09-28T14:46:12.909Z,32.4
2022-09-28T14:48:27.823Z,32.7
2022-09-28T14:50:43.088Z,32.6
2022-09-28T14:52:58.396Z,33.5
2022-09-28T14:55:14.656Z,32.1
2022-09-28T14:57:29.589Z,31.2
2022-09-28T14:59:45.518Z,31.8
2022-09-28T15:02:00.962Z,31.4
2022-09-28T15:04:16.828Z,31.8
2022-09-28T15:06:31.543Z,33.4
2022-09-28T15:08:47.519Z,33.8
2022-09-28T15:11:02.346Z,32.1
2022-09-28T15:13:17.614Z,32.3
2022-09-28T15:15:33.402Z,33.1
2022-09-28T15:17:48.559Z,32.4
2022-09-28T15:20:04.180Z,33.2
2022-09-28T15:22:19.080Z,32.5
2022-09-28T15:26:50.173Z,33.1
2022-09-28T15:29:05.572Z,32.4
2022-09-28T15:31:21.344Z,33.4
2022-09-28T15:33:36.426Z,32.8
2022-09-28T15:35:52.123Z,33.5
2022-09-28T15:38:06.871Z,32.3
2022-09-28T15:40:21.825Z,32.8
2022-09-28T15:42:36.629Z,33.3
2022-09-28T15:44:50.934Z,32.8
2022-09-28T15:47:06.823Z,32.9
2022-09-28T15:49:23.261Z,33.5
2022-09-28T15:51:39.336Z,33.5
2022-09-28T15:53:55.453Z,34.1
2022-09-28T15:56:11.018Z,33.8
2022-09-28T15:58:26.009Z,34.4
2022-09-28T16:00:41.812Z,32.1
2022-09-28T16:02:57.811Z,33.9
2022-09-28T16:05:13.702Z,34.3
2022-09-28T16:07:29.648Z,34.3
2022-09-28T16:09:45.410Z,34.2
2022-09-28T16:12:00.949Z,34.3
2022-09-28T16:14:16.114Z,32
2022-09-28T16:16:32.089Z,33.2
2022-09-28T16:18:47.613Z,33.9
2022-09-28T16:21:02.544Z,32.1
2022-09-28T16:23:17.880Z,32.9
2022-09-28T16:25:34.048Z,33.4
2022-09-28T16:27:50.074Z,33.3
2022-09-28T16:30:05.564Z,32.9
2022-09-28T16:32:20.920Z,32.1
2022-09-28T16:34:36.808Z,33.4
2022-09-28T16:36:52.721Z,34
2022-09-28T16:39:08.915Z,32.7
2022-09-28T16:41:24.429Z,33.3
2022-09-28T16:43:40.629Z,33.6
2022-09-28T16:45:56.296Z,33.1
2022-09-28T16:48:12.184Z,34.1
2022-09-28T16:50:27.437Z,32.1
2022-09-28T16:52:43.232Z,33.1
2022-09-28T16:57:26.933Z,33.3
2022-09-28T16:59:42.703Z,33.2
2022-09-28T17:01:58.839Z,32.4
2022-09-28T17:04:20.212Z,32.5
2022-09-28T17:06:35.771Z,32.7
2022-09-28T17:08:51.674Z,32.8
2022-09-28T17:11:23.946Z,32.8
2022-09-28T17:13:36.106Z,33.2
2022-09-28T17:15:51.238Z,31.4
2022-09-28T17:18:24.484Z,32.6
2022-09-28T17:20:39.734Z,32.7
2022-09-28T17:22:55.930Z,32.8
2022-09-28T17:25:12.765Z,33
2022-09-28T17:27:27.912Z,33.1
2022-09-28T17:29:44.030Z,32.9
2022-09-28T17:32:00.103Z,33.1
2022-09-28T17:34:16.463Z,32.4
2022-09-28T17:36:41.801Z,32.9
2022-09-28T17:38:57.569Z,32.4
2022-09-28T17:41:16.877Z,32.8
2022-09-28T17:43:29.213Z,32.4
2022-09-28T17:45:45.090Z,32.4
2022-09-28T17:48:00.959Z,32.9
2022-09-28T17:50:17.107Z,32.3
2022-09-28T17:52:32.651Z,31.8
2022-09-28T17:54:48.525Z,32.8
2022-09-28T17:57:04.373Z,32.2
2022-09-28T17:59:20.233Z,32.4
2022-09-28T18:01:36.107Z,32.6
2022-09-28T18:03:52.097Z,32.9
2022-09-28T18:06:24.118Z,32.6
2022-09-28T18:08:39.491Z,32.5
2022-09-28T18:10:54.784Z,31.7
2022-09-28T18:15:27.179Z,33.1
2022-09-28T18:17:42.744Z,32.3
2022-09-28T18:19:58.246Z,32.9
2022-09-28T18:22:13.623Z,31.9
2022-09-28T18:24:29.824Z,32.9
2022-09-28T18:26:45.894Z,33.2
2022-09-28T18:29:02.010Z,33.1
2022-09-28T18:31:17.537Z,32.9
2022-09-28T18:33:32.710Z,31.9
2022-09-28T18:35:48.551Z,32.8
2022-09-28T18:38:03.800Z,31.9
2022-09-28T18:40:20.140Z,33.2
2022-09-28T18:42:36.081Z,33.9
2022-09-28T18:44:51.857Z,33.1
2022-09-28T18:47:07.103Z,32.3
2022-09-28T18:49:23.446Z,33.3
2022-09-28T18:51:39.020Z,32.9
2022-09-28T18:53:54.270Z,32.4
2022-09-28T18:56:10.559Z,33.4
2022-09-28T18:58:26.525Z,33.5
2022-09-28T19:00:42.867Z,33.2
2022-09-28T19:03:04.529Z,32.8
2022-09-28T19:05:20.068Z,32.9
2022-09-28T19:07:35.482Z,31.9
2022-09-28T19:09:51.653Z,33.3
2022-09-28T19:12:07.590Z,33.9
2022-09-28T19:14:23.603Z,33.1
2022-09-28T19:18:55.397Z,33.8
2022-09-28T19:21:11.453Z,33.1
2022-09-28T19:23:27.295Z,34.1
2022-09-28T19:25:43.194Z,33.1
2022-09-28T19:27:59.295Z,33.9
2022-09-28T19:30:15.125Z,33.8
2022-09-28T19:32:31.091Z,33.4
2022-09-28T19:34:46.707Z,33.1
2022-09-28T19:37:01.969Z,31.8
2022-09-28T19:39:18.045Z,33
2022-09-28T19:41:35.866Z,32.9
2022-09-28T19:43:49.823Z,33.1
2022-09-28T19:46:04.875Z,31.9
2022-09-28T19:48:19.926Z,32.8
2022-09-28T19:50:36.278Z,33.1
2022-09-28T19:53:00.226Z,33.3
2022-09-28T19:55:16.222Z,32.4
2022-09-28T19:57:32.384Z,32.6
2022-09-28T19:59:52.104Z,33.4
2022-09-28T20:02:04.277Z,33.3
2022-09-28T20:04:20.386Z,33.2
2022-09-28T20:06:36.064Z,33.1
2022-09-28T20:08:52.087Z,33.3
2022-09-28T20:11:07.568Z,33.2
2022-09-28T20:13:23.026Z,31.6
2022-09-28T20:15:39.194Z,32.6
2022-09-28T20:17:55.162Z,33.8
2022-09-28T20:20:11.114Z,33
2022-09-28T20:22:26.735Z,33.5
2022-09-28T20:24:42.088Z,32.3
2022-09-28T20:26:58.242Z,33.2
2022-09-28T20:29:14.369Z,33.4
2022-09-28T20:31:30.184Z,33.4
2022-09-28T20:33:45.207Z,31.4
2022-09-28T20:36:02.669Z,32.8
2022-09-28T20:38:18.724Z,32.6
2022-09-28T20:40:34.723Z,32.9
2022-09-28T20:42:50.287Z,33.2
2022-09-28T20:45:05.496Z,32.2
2022-09-28T20:47:21.709Z,32.5
2022-09-28T20:49:37.806Z,32.8
2022-09-28T20:51:53.482Z,33.2
2022-09-28T20:54:08.746Z,31.8
2022-09-28T20:56:25.009Z,33.2
2022-09-28T20:58:40.958Z,32.1
2022-09-28T21:00:57.023Z,33.8
2022-09-28T21:03:12.964Z,33.1
2022-09-28T21:05:28.537Z,33
2022-09-28T21:07:43.818Z,31.8
2022-09-28T21:10:00.057Z,32.8
2022-09-28T21:12:16.128Z,33.4
2022-09-28T21:14:32.072Z,33.1
2022-09-28T21:16:48.187Z,32.8
2022-09-28T21:19:04.082Z,32.9
2022-09-28T21:21:19.950Z,32.8
2022-09-28T21:23:35.833Z,32.9
2022-09-28T21:25:51.923Z,32.9
2022-09-28T21:28:07.921Z,32.5
2022-09-28T21:30:23.694Z,33.1
2022-09-28T21:32:39.738Z,33.2
2022-09-28T21:34:55.295Z,32.9
2022-09-28T21:37:10.568Z,31.8
2022-09-28T21:39:26.921Z,32.5
2022-09-28T21:41:42.684Z,32.8
2022-09-28T21:43:58.323Z,32.8
2022-09-28T21:46:13.803Z,32.2
2022-09-28T21:48:29.829Z,32.6
2022-09-28T21:50:45.964Z,32.9
2022-09-28T21:53:02.047Z,33.6
2022-09-28T21:55:17.983Z,33
2022-09-28T21:57:33.886Z,32.9
2022-09-28T21:59:49.934Z,33.4
2022-09-28T22:02:06.072Z,33.3
2022-09-28T22:04:21.789Z,32.6
2022-09-28T22:06:38.057Z,32.3
2022-09-28T22:08:53.891Z,32.6
2022-09-28T22:11:10.096Z,33.1
2022-09-28T22:13:26.026Z,32.8
2022-09-28T22:15:41.849Z,32.8
2022-09-28T22:17:58.012Z,33
2022-09-28T22:20:14.130Z,33
2022-09-28T22:22:30.117Z,32.9
2022-09-28T22:24:46.171Z,32.9
2022-09-28T22:27:02.252Z,32.7
2022-09-28T22:29:18.237Z,32.8
2022-09-28T22:31:34.463Z,32.6
2022-09-28T22:33:50.427Z,33
2022-09-28T22:36:06.623Z,32.8
2022-09-28T22:38:22.531Z,32.6
2022-09-28T22:40:38.150Z,32.4
2022-09-28T22:42:53.596Z,32
2022-09-28T22:45:09.851Z,32.8
2022-09-28T22:47:26.268Z,33.1
2022-09-28T22:49:42.063Z,32.9
2022-09-28T22:51:58.273Z,33.1
2022-09-28T22:54:14.378Z,33
2022-09-28T22:56:30.193Z,32.5
2022-09-28T22:58:45.114Z,31.8
2022-09-28T23:01:00.378Z,32.5
2022-09-28T23:03:16.980Z,33
2022-09-28T23:05:32.969Z,33
2022-09-28T23:07:49.242Z,32.9
2022-09-28T23:10:05.329Z,33.2
2022-09-28T23:12:21.414Z,32.9
2022-09-28T23:14:37.459Z,32.6
2022-09-28T23:21:38.354Z,32.6
2022-09-28T23:23:53.867Z,32.1
2022-09-28T23:26:09.172Z,32
2022-09-28T23:28:25.408Z,32.8
2022-09-28T23:30:41.432Z,33
2022-09-28T23:32:57.061Z,32.5
2022-09-28T23:35:12.445Z,31.9
2022-09-28T23:37:28.680Z,32.6
2022-09-28T23:39:44.790Z,33
2022-09-28T23:42:00.819Z,33.1
2022-09-28T23:44:16.737Z,32.9
2022-09-28T23:46:32.805Z,32.4
2022-09-28T23:48:48.733Z,33.4
2022-09-28T23:51:04.694Z,32.4
2022-09-28T23:53:20.750Z,31.9
2022-09-28T23:55:36.251Z,32.6
2022-09-28T23:57:51.442Z,32.1
